sensor_id;sensor_type;location;lat;lon;timestamp;temperature;humidity
11736;DHT22;5924;51.398;7.088;2022-11-20T00:03:40;-2.00;99.90
11736;DHT22;5924;51.398;7.088;2022-11-20T00:06:08;1.20;99.90
11736;DHT22;5924;51.398;7.088;2022-11-20T00:08:34;-2.00;99.90
11736;DHT22;5924;51.398;7.088;2022-11-20T00:11:05;-0.50;99.90
11736;DHT22;5924;51.398;7.088;2022-11-20T00:13:31;-1.90;99.90
11736;DHT22;5924;51.398;7.088;2022-11-20T00:15:58;-1.80;99.90
11736;DHT22;5924;51.398;7.088;2022-11-20T00:18:25;-1.80;99.90
11736;DHT22;5924;51.398;7.088;2022-11-20T00:20:51;-1.70;99.90
11736;DHT22;5924;51.398;7.088;2022-11-20T00:23:17;-1.80;99.90
11736;DHT22;5924;51.398;7.088;2022-11-20T00:25:42;-1.80;99.90
11736;DHT22;5924;51.398;7.088;2022-11-20T00:28:08;-1.80;99.90
11736;DHT22;5924;51.398;7.088;2022-11-20T00:30:33;-1.90;99.90
11736;DHT22;5924;51.398;7.088;2022-11-20T00:32:59;-1.90;99.90
11736;DHT22;5924;51.398;7.088;2022-11-20T00:35:24;-1.90;99.90
11736;DHT22;5924;51.398;7.088;2022-11-20T00:37:50;-1.90;99.90
11736;DHT22;5924;51.398;7.088;2022-11-20T00:40:16;-1.90;99.90
11736;DHT22;5924;51.398;7.088;2022-11-20T00:42:41;-1.80;99.90
11736;DHT22;5924;51.398;7.088;2022-11-20T00:45:07;-1.20;99.90
11736;DHT22;5924;51.398;7.088;2022-11-20T00:47:33;-1.80;99.90
11736;DHT22;5924;51.398;7.088;2022-11-20T00:49:58;-4.20;99.90
11736;DHT22;5924;51.398;7.088;2022-11-20T00:52:24;-1.80;99.90
11736;DHT22;5924;51.398;7.088;2022-11-20T00:54:49;-1.80;99.90
11736;DHT22;5924;51.398;7.088;2022-11-20T00:57:15;-1.70;99.90
11736;DHT22;5924;51.398;7.088;2022-11-20T00:59:41;-1.60;99.90
11736;DHT22;5924;51.398;7.088;2022-11-20T01:02:06;-1.50;99.90
11736;DHT22;5924;51.398;7.088;2022-11-20T01:04:32;-1.40;99.90
11736;DHT22;5924;51.398;7.088;2022-11-20T01:06:57;-1.30;99.90
11736;DHT22;5924;51.398;7.088;2022-11-20T01:09:23;-1.30;99.90
11736;DHT22;5924;51.398;7.088;2022-11-20T01:11:49;-1.30;99.90
11736;DHT22;5924;51.398;7.088;2022-11-20T01:14:17;-1.30;99.90
11736;DHT22;5924;51.398;7.088;2022-11-20T01:16:46;-1.30;99.90
11736;DHT22;5924;51.398;7.088;2022-11-20T01:19:15;-4.30;99.90
11736;DHT22;5924;51.398;7.088;2022-11-20T01:21:42;-1.20;99.90
11736;DHT22;5924;51.398;7.088;2022-11-20T01:24:11;-1.10;99.90
11736;DHT22;5924;51.398;7.088;2022-11-20T01:26:38;-1.10;99.90
11736;DHT22;5924;51.398;7.088;2022-11-20T01:29:05;-1.10;99.90
11736;DHT22;5924;51.398;7.088;2022-11-20T01:31:33;-1.10;99.90
11736;DHT22;5924;51.398;7.088;2022-11-20T01:34:02;-1.10;99.90
11736;DHT22;5924;51.398;7.088;2022-11-20T01:36:30;-1.10;99.90
11736;DHT22;5924;51.398;7.088;2022-11-20T01:38:58;-2.80;99.90
11736;DHT22;5924;51.398;7.088;2022-11-20T01:41:26;-1.10;99.90
11736;DHT22;5924;51.398;7.088;2022-11-20T01:44:12;-1.10;99.90
11736;DHT22;5924;51.398;7.088;2022-11-20T01:46:42;-1.20;99.90
11736;DHT22;5924;51.398;7.088;2022-11-20T01:49:18;-1.10;99.90
11736;DHT22;5924;51.398;7.088;2022-11-20T01:54:21;-1.20;99.90
11736;DHT22;5924;51.398;7.088;2022-11-20T01:56:51;-1.20;99.90
11736;DHT22;5924;51.398;7.088;2022-11-20T01:59:19;-1.20;99.90
11736;DHT22;5924;51.398;7.088;2022-11-20T02:01:46;-1.20;99.90
11736;DHT22;5924;51.398;7.088;2022-11-20T02:04:13;-1.10;99.90
11736;DHT22;5924;51.398;7.088;2022-11-20T02:06:47;-1.10;99.90
11736;DHT22;5924;51.398;7.088;2022-11-20T02:09:14;-1.10;99.90
11736;DHT22;5924;51.398;7.088;2022-11-20T02:11:40;-1.00;99.90
11736;DHT22;5924;51.398;7.088;2022-11-20T02:14:06;-0.90;99.90
11736;DHT22;5924;51.398;7.088;2022-11-20T02:16:39;-0.90;99.90
11736;DHT22;5924;51.398;7.088;2022-11-20T02:19:13;-0.90;99.90
11736;DHT22;5924;51.398;7.088;2022-11-20T02:21:47;-0.90;99.90
11736;DHT22;5924;51.398;7.088;2022-11-20T02:24:15;-0.90;99.90
11736;DHT22;5924;51.398;7.088;2022-11-20T02:27:04;-0.90;99.90
11736;DHT22;5924;51.398;7.088;2022-11-20T02:32:21;-0.80;99.90
11736;DHT22;5924;51.398;7.088;2022-11-20T02:34:47;-0.80;99.90
11736;DHT22;5924;51.398;7.088;2022-11-20T02:37:14;-0.80;99.90
11736;DHT22;5924;51.398;7.088;2022-11-20T02:39:40;-0.70;99.90
11736;DHT22;5924;51.398;7.088;2022-11-20T02:42:07;-0.70;99.90
11736;DHT22;5924;51.398;7.088;2022-11-20T02:44:32;-0.70;99.90
11736;DHT22;5924;51.398;7.088;2022-11-20T02:46:58;1.70;99.90
11736;DHT22;5924;51.398;7.088;2022-11-20T02:49:24;-0.60;99.90
11736;DHT22;5924;51.398;7.088;2022-11-20T02:51:51;-0.60;99.90
11736;DHT22;5924;51.398;7.088;2022-11-20T02:54:16;-0.60;99.90
11736;DHT22;5924;51.398;7.088;2022-11-20T02:56:42;-0.60;99.90
11736;DHT22;5924;51.398;7.088;2022-11-20T02:59:09;-0.60;99.90
11736;DHT22;5924;51.398;7.088;2022-11-20T03:01:35;-0.50;99.90
11736;DHT22;5924;51.398;7.088;2022-11-20T03:04:01;-0.50;99.90
11736;DHT22;5924;51.398;7.088;2022-11-20T03:06:27;-0.40;99.90
11736;DHT22;5924;51.398;7.088;2022-11-20T03:08:53;-0.40;99.90
11736;DHT22;5924;51.398;7.088;2022-11-20T03:11:19;-0.40;99.90
11736;DHT22;5924;51.398;7.088;2022-11-20T03:13:44;-0.40;99.90
11736;DHT22;5924;51.398;7.088;2022-11-20T03:16:13;1.00;99.90
11736;DHT22;5924;51.398;7.088;2022-11-20T03:18:40;-0.40;99.90
11736;DHT22;5924;51.398;7.088;2022-11-20T03:21:06;-0.40;99.90
11736;DHT22;5924;51.398;7.088;2022-11-20T03:23:33;-0.40;99.90
11736;DHT22;5924;51.398;7.088;2022-11-20T03:28:41;-0.30;99.90
11736;DHT22;5924;51.398;7.088;2022-11-20T03:31:12;-0.30;99.90
11736;DHT22;5924;51.398;7.088;2022-11-20T03:33:39;-0.30;99.90
11736;DHT22;5924;51.398;7.088;2022-11-20T03:36:07;-0.20;99.90
11736;DHT22;5924;51.398;7.088;2022-11-20T03:38:34;-0.20;99.90
11736;DHT22;5924;51.398;7.088;2022-11-20T03:41:04;-0.20;99.90
11736;DHT22;5924;51.398;7.088;2022-11-20T03:43:30;-0.20;99.90
11736;DHT22;5924;51.398;7.088;2022-11-20T03:45:56;-0.20;99.90
11736;DHT22;5924;51.398;7.088;2022-11-20T03:48:21;-0.20;99.90
11736;DHT22;5924;51.398;7.088;2022-11-20T03:50:47;-0.20;99.90
11736;DHT22;5924;51.398;7.088;2022-11-20T03:53:14;-0.20;99.90
11736;DHT22;5924;51.398;7.088;2022-11-20T03:55:40;-0.10;99.90
11736;DHT22;5924;51.398;7.088;2022-11-20T03:58:05;-0.10;99.90
11736;DHT22;5924;51.398;7.088;2022-11-20T04:00:31;-0.10;99.90
11736;DHT22;5924;51.398;7.088;2022-11-20T04:03:00;-0.10;99.90
11736;DHT22;5924;51.398;7.088;2022-11-20T04:05:26;0.00;99.90
11736;DHT22;5924;51.398;7.088;2022-11-20T04:07:52;0.00;99.90
11736;DHT22;5924;51.398;7.088;2022-11-20T04:10:18;-0.10;99.90
11736;DHT22;5924;51.398;7.088;2022-11-20T04:12:43;0.00;99.90
11736;DHT22;5924;51.398;7.088;2022-11-20T04:15:09;0.00;99.90
11736;DHT22;5924;51.398;7.088;2022-11-20T04:17:35;0.00;99.90
11736;DHT22;5924;51.398;7.088;2022-11-20T04:20:01;0.00;99.90
11736;DHT22;5924;51.398;7.088;2022-11-20T04:22:26;0.10;99.90
11736;DHT22;5924;51.398;7.088;2022-11-20T04:24:52;0.00;99.90
11736;DHT22;5924;51.398;7.088;2022-11-20T04:27:18;0.10;99.90
11736;DHT22;5924;51.398;7.088;2022-11-20T04:29:43;0.10;99.90
11736;DHT22;5924;51.398;7.088;2022-11-20T04:32:09;0.10;99.90
11736;DHT22;5924;51.398;7.088;2022-11-20T04:34:35;0.10;99.90
11736;DHT22;5924;51.398;7.088;2022-11-20T04:37:00;0.10;99.90
11736;DHT22;5924;51.398;7.088;2022-11-20T04:39:26;0.10;99.90
11736;DHT22;5924;51.398;7.088;2022-11-20T04:41:52;0.10;99.90
11736;DHT22;5924;51.398;7.088;2022-11-20T04:44:37;0.20;99.90
11736;DHT22;5924;51.398;7.088;2022-11-20T04:47:03;1.10;99.90
11736;DHT22;5924;51.398;7.088;2022-11-20T04:49:29;0.20;99.90
11736;DHT22;5924;51.398;7.088;2022-11-20T04:51:54;0.20;99.90
11736;DHT22;5924;51.398;7.088;2022-11-20T04:54:20;0.30;99.90
11736;DHT22;5924;51.398;7.088;2022-11-20T04:56:47;0.30;99.90
11736;DHT22;5924;51.398;7.088;2022-11-20T04:59:13;0.30;99.90
11736;DHT22;5924;51.398;7.088;2022-11-20T05:01:39;0.30;99.90
11736;DHT22;5924;51.398;7.088;2022-11-20T05:04:05;0.30;99.90
11736;DHT22;5924;51.398;7.088;2022-11-20T05:06:31;0.30;99.90
11736;DHT22;5924;51.398;7.088;2022-11-20T05:08:57;0.40;99.90
11736;DHT22;5924;51.398;7.088;2022-11-20T05:11:23;0.40;99.90
11736;DHT22;5924;51.398;7.088;2022-11-20T05:13:50;0.40;99.90
11736;DHT22;5924;51.398;7.088;2022-11-20T05:16:19;0.40;99.90
11736;DHT22;5924;51.398;7.088;2022-11-20T05:18:45;0.40;99.90
11736;DHT22;5924;51.398;7.088;2022-11-20T05:21:11;0.40;99.90
11736;DHT22;5924;51.398;7.088;2022-11-20T05:23:37;0.40;99.90
11736;DHT22;5924;51.398;7.088;2022-11-20T05:26:04;0.50;99.90
11736;DHT22;5924;51.398;7.088;2022-11-20T05:28:30;0.50;99.90
11736;DHT22;5924;51.398;7.088;2022-11-20T05:31:03;0.60;99.90
11736;DHT22;5924;51.398;7.088;2022-11-20T05:33:28;0.60;99.90
11736;DHT22;5924;51.398;7.088;2022-11-20T05:35:58;0.60;99.90
11736;DHT22;5924;51.398;7.088;2022-11-20T05:38:23;0.60;99.90
11736;DHT22;5924;51.398;7.088;2022-11-20T05:40:49;0.60;99.90
11736;DHT22;5924;51.398;7.088;2022-11-20T05:43:15;0.60;99.90
11736;DHT22;5924;51.398;7.088;2022-11-20T05:45:41;0.70;99.90
11736;DHT22;5924;51.398;7.088;2022-11-20T05:48:06;0.70;99.90
11736;DHT22;5924;51.398;7.088;2022-11-20T05:50:32;0.70;99.90
11736;DHT22;5924;51.398;7.088;2022-11-20T05:52:58;0.80;99.90
11736;DHT22;5924;51.398;7.088;2022-11-20T05:55:25;0.80;99.90
11736;DHT22;5924;51.398;7.088;2022-11-20T05:57:52;0.80;99.90
11736;DHT22;5924;51.398;7.088;2022-11-20T06:00:19;0.80;99.90
11736;DHT22;5924;51.398;7.088;2022-11-20T06:02:44;0.80;99.90
11736;DHT22;5924;51.398;7.088;2022-11-20T06:05:10;0.80;99.90
11736;DHT22;5924;51.398;7.088;2022-11-20T06:07:35;0.80;99.90
11736;DHT22;5924;51.398;7.088;2022-11-20T06:10:01;0.80;99.90
11736;DHT22;5924;51.398;7.088;2022-11-20T06:12:27;0.80;99.90
11736;DHT22;5924;51.398;7.088;2022-11-20T06:14:52;0.70;99.90
11736;DHT22;5924;51.398;7.088;2022-11-20T06:17:18;0.70;99.90
11736;DHT22;5924;51.398;7.088;2022-11-20T06:19:43;0.70;99.90
11736;DHT22;5924;51.398;7.088;2022-11-20T06:22:09;1.00;99.90
11736;DHT22;5924;51.398;7.088;2022-11-20T06:24:34;0.70;99.90
11736;DHT22;5924;51.398;7.088;2022-11-20T06:27:00;0.70;99.90
11736;DHT22;5924;51.398;7.088;2022-11-20T06:29:26;0.70;99.90
11736;DHT22;5924;51.398;7.088;2022-11-20T06:31:51;0.70;99.90
11736;DHT22;5924;51.398;7.088;2022-11-20T06:34:17;0.70;99.90
11736;DHT22;5924;51.398;7.088;2022-11-20T06:36:42;2.60;99.90
11736;DHT22;5924;51.398;7.088;2022-11-20T06:39:08;0.60;99.90
11736;DHT22;5924;51.398;7.088;2022-11-20T06:41:34;0.60;99.90
11736;DHT22;5924;51.398;7.088;2022-11-20T06:43:59;0.80;99.90
11736;DHT22;5924;51.398;7.088;2022-11-20T06:46:25;0.70;99.90
11736;DHT22;5924;51.398;7.088;2022-11-20T06:48:50;0.70;99.90
11736;DHT22;5924;51.398;7.088;2022-11-20T06:51:17;0.70;99.90
11736;DHT22;5924;51.398;7.088;2022-11-20T06:53:42;0.70;99.90
11736;DHT22;5924;51.398;7.088;2022-11-20T06:56:08;0.70;99.90
11736;DHT22;5924;51.398;7.088;2022-11-20T06:58:35;0.70;99.90
11736;DHT22;5924;51.398;7.088;2022-11-20T07:01:06;0.70;99.90
11736;DHT22;5924;51.398;7.088;2022-11-20T07:03:32;0.70;99.90
11736;DHT22;5924;51.398;7.088;2022-11-20T07:06:00;0.70;99.90
11736;DHT22;5924;51.398;7.088;2022-11-20T07:08:26;0.60;99.90
11736;DHT22;5924;51.398;7.088;2022-11-20T07:10:52;0.70;99.90
11736;DHT22;5924;51.398;7.088;2022-11-20T07:13:17;0.70;99.90
11736;DHT22;5924;51.398;7.088;2022-11-20T07:15:43;0.70;99.90
11736;DHT22;5924;51.398;7.088;2022-11-20T07:18:09;0.70;99.90
11736;DHT22;5924;51.398;7.088;2022-11-20T07:20:35;0.70;99.90
11736;DHT22;5924;51.398;7.088;2022-11-20T07:23:00;0.70;99.90
11736;DHT22;5924;51.398;7.088;2022-11-20T07:25:27;0.70;99.90
11736;DHT22;5924;51.398;7.088;2022-11-20T07:27:56;0.70;99.90
11736;DHT22;5924;51.398;7.088;2022-11-20T07:30:22;0.70;99.90
11736;DHT22;5924;51.398;7.088;2022-11-20T07:32:51;0.80;99.90
11736;DHT22;5924;51.398;7.088;2022-11-20T07:35:16;0.80;99.90
11736;DHT22;5924;51.398;7.088;2022-11-20T07:37:42;0.90;99.90
11736;DHT22;5924;51.398;7.088;2022-11-20T07:40:08;0.90;99.90
11736;DHT22;5924;51.398;7.088;2022-11-20T07:42:34;1.00;99.90
11736;DHT22;5924;51.398;7.088;2022-11-20T07:44:59;1.00;99.90
11736;DHT22;5924;51.398;7.088;2022-11-20T07:47:25;1.20;99.90
11736;DHT22;5924;51.398;7.088;2022-11-20T07:49:51;1.10;99.90
11736;DHT22;5924;51.398;7.088;2022-11-20T07:52:16;1.20;99.90
11736;DHT22;5924;51.398;7.088;2022-11-20T07:54:42;1.20;99.90
11736;DHT22;5924;51.398;7.088;2022-11-20T07:57:07;1.30;99.90
11736;DHT22;5924;51.398;7.088;2022-11-20T07:59:33;1.30;99.90
11736;DHT22;5924;51.398;7.088;2022-11-20T08:01:58;1.20;99.90
11736;DHT22;5924;51.398;7.088;2022-11-20T08:04:24;1.20;99.90
11736;DHT22;5924;51.398;7.088;2022-11-20T08:06:51;-0.90;99.90
11736;DHT22;5924;51.398;7.088;2022-11-20T08:09:17;1.00;99.90
11736;DHT22;5924;51.398;7.088;2022-11-20T08:11:43;1.00;99.90
11736;DHT22;5924;51.398;7.088;2022-11-20T08:14:31;0.90;99.90
11736;DHT22;5924;51.398;7.088;2022-11-20T08:16:57;0.80;99.90
11736;DHT22;5924;51.398;7.088;2022-11-20T08:19:22;0.70;99.90
11736;DHT22;5924;51.398;7.088;2022-11-20T08:21:48;0.60;99.90
11736;DHT22;5924;51.398;7.088;2022-11-20T08:24:14;0.50;99.90
11736;DHT22;5924;51.398;7.088;2022-11-20T08:26:41;0.50;99.90
11736;DHT22;5924;51.398;7.088;2022-11-20T08:29:06;0.50;99.90
11736;DHT22;5924;51.398;7.088;2022-11-20T08:31:32;0.50;99.90
11736;DHT22;5924;51.398;7.088;2022-11-20T08:33:58;0.60;99.90
11736;DHT22;5924;51.398;7.088;2022-11-20T08:36:24;0.70;99.90
11736;DHT22;5924;51.398;7.088;2022-11-20T08:38:51;0.90;99.90
11736;DHT22;5924;51.398;7.088;2022-11-20T08:41:17;1.10;99.90
11736;DHT22;5924;51.398;7.088;2022-11-20T08:44:00;1.30;99.90
11736;DHT22;5924;51.398;7.088;2022-11-20T08:46:47;1.50;99.90
11736;DHT22;5924;51.398;7.088;2022-11-20T08:49:13;1.70;99.90
11736;DHT22;5924;51.398;7.088;2022-11-20T08:51:40;1.80;99.90
11736;DHT22;5924;51.398;7.088;2022-11-20T08:54:06;1.90;99.90
11736;DHT22;5924;51.398;7.088;2022-11-20T08:56:33;2.10;99.90
11736;DHT22;5924;51.398;7.088;2022-11-20T08:58:59;2.20;99.90
11736;DHT22;5924;51.398;7.088;2022-11-20T09:01:25;1.20;99.90
11736;DHT22;5924;51.398;7.088;2022-11-20T09:03:51;2.30;99.90
11736;DHT22;5924;51.398;7.088;2022-11-20T09:06:17;2.40;99.90
11736;DHT22;5924;51.398;7.088;2022-11-20T09:08:43;2.50;99.90
11736;DHT22;5924;51.398;7.088;2022-11-20T09:11:09;2.50;99.90
11736;DHT22;5924;51.398;7.088;2022-11-20T09:13:35;2.60;99.90
11736;DHT22;5924;51.398;7.088;2022-11-20T09:16:04;2.70;99.90
11736;DHT22;5924;51.398;7.088;2022-11-20T09:18:30;2.80;99.90
11736;DHT22;5924;51.398;7.088;2022-11-20T09:21:02;2.80;99.90
11736;DHT22;5924;51.398;7.088;2022-11-20T09:23:31;2.90;99.90
11736;DHT22;5924;51.398;7.088;2022-11-20T09:25:57;3.00;99.90
11736;DHT22;5924;51.398;7.088;2022-11-20T09:28:25;3.20;99.90
11736;DHT22;5924;51.398;7.088;2022-11-20T09:30:51;3.30;99.90
11736;DHT22;5924;51.398;7.088;2022-11-20T09:33:17;3.40;99.90
11736;DHT22;5924;51.398;7.088;2022-11-20T09:35:43;3.40;99.90
11736;DHT22;5924;51.398;7.088;2022-11-20T09:38:09;3.40;99.90
11736;DHT22;5924;51.398;7.088;2022-11-20T09:40:39;3.40;99.90
11736;DHT22;5924;51.398;7.088;2022-11-20T09:43:15;3.50;99.90
11736;DHT22;5924;51.398;7.088;2022-11-20T09:54:20;3.90;99.90
11736;DHT22;5924;51.398;7.088;2022-11-20T09:56:55;4.00;99.90
11736;DHT22;5924;51.398;7.088;2022-11-20T09:59:40;4.10;99.90
11736;DHT22;5924;51.398;7.088;2022-11-20T10:05:30;4.20;99.90
11736;DHT22;5924;51.398;7.088;2022-11-20T10:08:28;4.40;99.90
11736;DHT22;5924;51.398;7.088;2022-11-20T10:19:40;4.30;1.00
11736;DHT22;5924;51.398;7.088;2022-11-20T10:30:11;4.30;1.00
11736;DHT22;5924;51.398;7.088;2022-11-20T10:32:40;4.40;1.00
11736;DHT22;5924;51.398;7.088;2022-11-20T10:38:00;4.30;1.00
11736;DHT22;5924;51.398;7.088;2022-11-20T10:40:35;4.20;1.00
11736;DHT22;5924;51.398;7.088;2022-11-20T10:45:44;4.30;1.00
11736;DHT22;5924;51.398;7.088;2022-11-20T10:50:45;4.60;1.00
11736;DHT22;5924;51.398;7.088;2022-11-20T10:53:33;4.70;1.00
11736;DHT22;5924;51.398;7.088;2022-11-20T10:56:09;4.90;1.00
11736;DHT22;5924;51.398;7.088;2022-11-20T11:01:20;5.10;1.00
11736;DHT22;5924;51.398;7.088;2022-11-20T11:03:51;5.00;1.00
11736;DHT22;5924;51.398;7.088;2022-11-20T11:06:40;5.00;1.00
11736;DHT22;5924;51.398;7.088;2022-11-20T11:09:16;4.90;1.00
11736;DHT22;5924;51.398;7.088;2022-11-20T11:11:42;4.90;1.00
11736;DHT22;5924;51.398;7.088;2022-11-20T11:14:11;4.90;1.00
11736;DHT22;5924;51.398;7.088;2022-11-20T11:19:15;5.00;1.00
11736;DHT22;5924;51.398;7.088;2022-11-20T11:21:51;5.20;1.00
11736;DHT22;5924;51.398;7.088;2022-11-20T11:24:29;5.20;1.00
11736;DHT22;5924;51.398;7.088;2022-11-20T11:26:59;5.20;1.00
11736;DHT22;5924;51.398;7.088;2022-11-20T11:29:29;5.20;1.00
11736;DHT22;5924;51.398;7.088;2022-11-20T11:32:08;5.30;1.00
11736;DHT22;5924;51.398;7.088;2022-11-20T11:34:34;5.40;1.00
11736;DHT22;5924;51.398;7.088;2022-11-20T11:37:00;5.40;1.00
11736;DHT22;5924;51.398;7.088;2022-11-20T11:39:30;5.40;1.00
11736;DHT22;5924;51.398;7.088;2022-11-20T11:41:57;5.40;1.00
11736;DHT22;5924;51.398;7.088;2022-11-20T11:44:32;5.60;1.00
11736;DHT22;5924;51.398;7.088;2022-11-20T11:47:24;5.70;1.00
11736;DHT22;5924;51.398;7.088;2022-11-20T11:53:17;5.70;99.90
11736;DHT22;5924;51.398;7.088;2022-11-20T11:55:58;5.70;99.90
11736;DHT22;5924;51.398;7.088;2022-11-20T11:58:44;5.70;99.90
11736;DHT22;5924;51.398;7.088;2022-11-20T12:01:47;5.60;99.90
11736;DHT22;5924;51.398;7.088;2022-11-20T12:06:43;5.80;1.00
11736;DHT22;5924;51.398;7.088;2022-11-20T12:09:11;5.80;99.90
11736;DHT22;5924;51.398;7.088;2022-11-20T12:11:58;5.70;99.90
11736;DHT22;5924;51.398;7.088;2022-11-20T12:14:34;5.50;99.90
11736;DHT22;5924;51.398;7.088;2022-11-20T12:17:02;5.40;1.00
11736;DHT22;5924;51.398;7.088;2022-11-20T12:19:30;5.30;1.00
11736;DHT22;5924;51.398;7.088;2022-11-20T12:25:18;4.90;1.00
11736;DHT22;5924;51.398;7.088;2022-11-20T12:30:26;4.80;1.00
11736;DHT22;5924;51.398;7.088;2022-11-20T12:35:44;4.80;1.00
11736;DHT22;5924;51.398;7.088;2022-11-20T12:38:30;4.70;1.00
11736;DHT22;5924;51.398;7.088;2022-11-20T12:41:22;4.70;1.00
11736;DHT22;5924;51.398;7.088;2022-11-20T12:52:52;4.70;1.00
11736;DHT22;5924;51.398;7.088;2022-11-20T12:55:23;4.80;1.00
11736;DHT22;5924;51.398;7.088;2022-11-20T13:00:26;4.80;1.00
11736;DHT22;5924;51.398;7.088;2022-11-20T13:08:34;4.70;1.00
11736;DHT22;5924;51.398;7.088;2022-11-20T13:16:45;4.80;1.00
11736;DHT22;5924;51.398;7.088;2022-11-20T13:19:14;4.80;1.00
11736;DHT22;5924;51.398;7.088;2022-11-20T13:21:43;4.90;1.00
11736;DHT22;5924;51.398;7.088;2022-11-20T13:26:45;2.80;1.00
11736;DHT22;5924;51.398;7.088;2022-11-20T13:29:18;4.90;1.00
11736;DHT22;5924;51.398;7.088;2022-11-20T13:31:46;4.90;1.00
11736;DHT22;5924;51.398;7.088;2022-11-20T13:34:38;4.90;1.00
11736;DHT22;5924;51.398;7.088;2022-11-20T13:37:04;4.90;1.00
11736;DHT22;5924;51.398;7.088;2022-11-20T13:39:34;5.90;1.00
11736;DHT22;5924;51.398;7.088;2022-11-20T13:44:44;4.90;1.00
11736;DHT22;5924;51.398;7.088;2022-11-20T13:47:24;4.90;1.00
11736;DHT22;5924;51.398;7.088;2022-11-20T13:49:52;4.90;1.00
11736;DHT22;5924;51.398;7.088;2022-11-20T13:55:28;5.00;1.00
11736;DHT22;5924;51.398;7.088;2022-11-20T14:01:23;5.00;1.00
11736;DHT22;5924;51.398;7.088;2022-11-20T14:03:50;4.90;1.00
11736;DHT22;5924;51.398;7.088;2022-11-20T14:06:46;4.90;1.00
11736;DHT22;5924;51.398;7.088;2022-11-20T14:09:25;4.90;1.00
11736;DHT22;5924;51.398;7.088;2022-11-20T14:11:51;4.90;1.00
11736;DHT22;5924;51.398;7.088;2022-11-20T14:14:23;4.80;1.00
11736;DHT22;5924;51.398;7.088;2022-11-20T14:16:51;4.80;1.00
11736;DHT22;5924;51.398;7.088;2022-11-20T14:21:53;4.60;1.00
11736;DHT22;5924;51.398;7.088;2022-11-20T14:24:22;4.60;1.00
11736;DHT22;5924;51.398;7.088;2022-11-20T14:26:48;4.50;4.10
11736;DHT22;5924;51.398;7.088;2022-11-20T14:29:37;4.50;8.40
11736;DHT22;5924;51.398;7.088;2022-11-20T14:32:03;4.50;11.50
11736;DHT22;5924;51.398;7.088;2022-11-20T14:34:31;4.50;16.10
11736;DHT22;5924;51.398;7.088;2022-11-20T14:37:02;4.40;23.90
11736;DHT22;5924;51.398;7.088;2022-11-20T14:39:36;4.40;26.20
11736;DHT22;5924;51.398;7.088;2022-11-20T14:42:19;4.40;29.00
11736;DHT22;5924;51.398;7.088;2022-11-20T14:44:45;4.40;37.20
11736;DHT22;5924;51.398;7.088;2022-11-20T14:47:13;4.40;51.10
11736;DHT22;5924;51.398;7.088;2022-11-20T14:49:40;4.40;61.50
11736;DHT22;5924;51.398;7.088;2022-11-20T14:52:14;4.40;63.80
11736;DHT22;5924;51.398;7.088;2022-11-20T14:54:53;4.40;73.80
11736;DHT22;5924;51.398;7.088;2022-11-20T14:59:47;4.40;76.70
11736;DHT22;5924;51.398;7.088;2022-11-20T15:02:13;4.30;77.90
11736;DHT22;5924;51.398;7.088;2022-11-20T15:04:49;4.30;77.50
11736;DHT22;5924;51.398;7.088;2022-11-20T15:07:46;4.40;79.60
11736;DHT22;5924;51.398;7.088;2022-11-20T15:12:45;4.30;76.80
11736;DHT22;5924;51.398;7.088;2022-11-20T15:15:14;4.20;75.90
11736;DHT22;5924;51.398;7.088;2022-11-20T15:17:42;4.20;74.20
11736;DHT22;5924;51.398;7.088;2022-11-20T15:20:15;4.20;75.40
11736;DHT22;5924;51.398;7.088;2022-11-20T15:22:41;4.20;77.60
11736;DHT22;5924;51.398;7.088;2022-11-20T15:25:17;4.20;79.40
11736;DHT22;5924;51.398;7.088;2022-11-20T15:27:44;4.10;80.80
11736;DHT22;5924;51.398;7.088;2022-11-20T15:30:18;4.10;83.90
11736;DHT22;5924;51.398;7.088;2022-11-20T15:32:47;4.10;85.10
11736;DHT22;5924;51.398;7.088;2022-11-20T15:35:14;4.10;87.00
11736;DHT22;5924;51.398;7.088;2022-11-20T15:37:40;4.00;89.20
11736;DHT22;5924;51.398;7.088;2022-11-20T15:40:07;4.00;90.20
11736;DHT22;5924;51.398;7.088;2022-11-20T15:42:34;4.00;92.10
11736;DHT22;5924;51.398;7.088;2022-11-20T15:45:00;3.90;94.00
11736;DHT22;5924;51.398;7.088;2022-11-20T15:47:29;3.90;94.80
11736;DHT22;5924;51.398;7.088;2022-11-20T15:49:55;3.80;96.90
11736;DHT22;5924;51.398;7.088;2022-11-20T15:52:21;3.80;98.00
11736;DHT22;5924;51.398;7.088;2022-11-20T15:54:47;3.80;99.90
11736;DHT22;5924;51.398;7.088;2022-11-20T15:57:13;3.80;99.90
11736;DHT22;5924;51.398;7.088;2022-11-20T15:59:39;3.80;99.90
11736;DHT22;5924;51.398;7.088;2022-11-20T16:02:11;3.80;99.90
11736;DHT22;5924;51.398;7.088;2022-11-20T16:04:37;3.80;99.90
11736;DHT22;5924;51.398;7.088;2022-11-20T16:07:02;3.80;99.90
11736;DHT22;5924;51.398;7.088;2022-11-20T16:09:28;3.80;99.90
11736;DHT22;5924;51.398;7.088;2022-11-20T16:11:54;3.80;99.90
11736;DHT22;5924;51.398;7.088;2022-11-20T16:14:19;3.80;99.90
11736;DHT22;5924;51.398;7.088;2022-11-20T16:17:04;3.90;99.90
11736;DHT22;5924;51.398;7.088;2022-11-20T16:19:30;3.90;99.90
11736;DHT22;5924;51.398;7.088;2022-11-20T16:21:57;4.00;99.90
11736;DHT22;5924;51.398;7.088;2022-11-20T16:24:23;3.50;99.90
11736;DHT22;5924;51.398;7.088;2022-11-20T16:26:48;5.00;99.90
11736;DHT22;5924;51.398;7.088;2022-11-20T16:29:14;3.90;99.90
11736;DHT22;5924;51.398;7.088;2022-11-20T16:31:40;3.90;99.90
11736;DHT22;5924;51.398;7.088;2022-11-20T16:34:07;4.00;99.90
11736;DHT22;5924;51.398;7.088;2022-11-20T16:36:32;4.00;99.90
11736;DHT22;5924;51.398;7.088;2022-11-20T16:39:00;4.10;99.90
11736;DHT22;5924;51.398;7.088;2022-11-20T16:41:27;4.10;99.90
11736;DHT22;5924;51.398;7.088;2022-11-20T16:43:55;4.10;99.90
11736;DHT22;5924;51.398;7.088;2022-11-20T16:46:25;4.10;99.90
11736;DHT22;5924;51.398;7.088;2022-11-20T16:48:59;4.10;99.90
11736;DHT22;5924;51.398;7.088;2022-11-20T16:51:27;4.10;99.90
11736;DHT22;5924;51.398;7.088;2022-11-20T16:53:53;4.20;99.90
11736;DHT22;5924;51.398;7.088;2022-11-20T16:56:26;4.20;99.90
11736;DHT22;5924;51.398;7.088;2022-11-20T16:58:53;4.30;99.90
11736;DHT22;5924;51.398;7.088;2022-11-20T17:01:20;4.30;99.90
11736;DHT22;5924;51.398;7.088;2022-11-20T17:03:57;4.40;99.90
11736;DHT22;5924;51.398;7.088;2022-11-20T17:06:26;4.40;99.90
11736;DHT22;5924;51.398;7.088;2022-11-20T17:08:54;4.50;99.90
11736;DHT22;5924;51.398;7.088;2022-11-20T17:11:20;6.40;99.90
11736;DHT22;5924;51.398;7.088;2022-11-20T17:13:46;4.50;99.90
11736;DHT22;5924;51.398;7.088;2022-11-20T17:16:22;4.60;99.90
11736;DHT22;5924;51.398;7.088;2022-11-20T17:18:49;4.60;99.90
11736;DHT22;5924;51.398;7.088;2022-11-20T17:21:16;4.60;99.90
11736;DHT22;5924;51.398;7.088;2022-11-20T17:23:42;4.60;99.90
11736;DHT22;5924;51.398;7.088;2022-11-20T17:28:39;4.60;99.90
11736;DHT22;5924;51.398;7.088;2022-11-20T17:31:23;4.70;99.90
11736;DHT22;5924;51.398;7.088;2022-11-20T17:33:48;4.60;99.90
11736;DHT22;5924;51.398;7.088;2022-11-20T17:36:16;4.70;99.90
11736;DHT22;5924;51.398;7.088;2022-11-20T17:38:42;6.70;99.90
11736;DHT22;5924;51.398;7.088;2022-11-20T17:41:14;4.60;99.90
11736;DHT22;5924;51.398;7.088;2022-11-20T17:43:40;4.70;99.90
11736;DHT22;5924;51.398;7.088;2022-11-20T17:46:13;4.70;99.90
11736;DHT22;5924;51.398;7.088;2022-11-20T17:48:39;4.70;99.90
11736;DHT22;5924;51.398;7.088;2022-11-20T17:51:09;4.70;99.90
11736;DHT22;5924;51.398;7.088;2022-11-20T17:53:37;4.70;99.90
11736;DHT22;5924;51.398;7.088;2022-11-20T17:56:03;4.80;99.90
11736;DHT22;5924;51.398;7.088;2022-11-20T17:58:47;4.80;99.90
11736;DHT22;5924;51.398;7.088;2022-11-20T18:01:13;4.80;99.90